sensor_id;sensor_type;location;lat;lon;timestamp;pressure;altitude;pressure_sealevel;temperature
10869;BMP180;62667;48.698;8.762;2023-03-31T00:00:12;95400.00;;;9.50
10869;BMP180;62667;48.698;8.762;2023-03-31T00:02:39;95401.00;;;9.50
10869;BMP180;62667;48.698;8.762;2023-03-31T00:05:08;95385.00;;;9.40
10869;BMP180;62667;48.698;8.762;2023-03-31T00:07:35;95381.00;;;9.40
10869;BMP180;62667;48.698;8.762;2023-03-31T00:10:04;95374.00;;;9.40
10869;BMP180;62667;48.698;8.762;2023-03-31T00:12:34;95380.00;;;9.30
10869;BMP180;62667;48.698;8.762;2023-03-31T00:15:01;95375.00;;;9.30
10869;BMP180;62667;48.698;8.762;2023-03-31T00:17:29;95370.00;;;9.30
10869;BMP180;62667;48.698;8.762;2023-03-31T00:19:58;95361.00;;;9.20
10869;BMP180;62667;48.698;8.762;2023-03-31T00:22:29;95361.00;;;9.20
10869;BMP180;62667;48.698;8.762;2023-03-31T00:24:57;95363.00;;;9.20
10869;BMP180;62667;48.698;8.762;2023-03-31T00:27:25;95377.00;;;9.10
10869;BMP180;62667;48.698;8.762;2023-03-31T00:29:55;95368.00;;;9.00
10869;BMP180;62667;48.698;8.762;2023-03-31T00:32:22;95370.00;;;9.00
10869;BMP180;62667;48.698;8.762;2023-03-31T00:34:50;95362.00;;;8.90
10869;BMP180;62667;48.698;8.762;2023-03-31T00:37:17;95345.00;;;9.00
10869;BMP180;62667;48.698;8.762;2023-03-31T00:39:45;95357.00;;;9.10
10869;BMP180;62667;48.698;8.762;2023-03-31T00:42:12;95348.00;;;9.00
10869;BMP180;62667;48.698;8.762;2023-03-31T00:47:53;95353.00;;;8.90
10869;BMP180;62667;48.698;8.762;2023-03-31T00:50:23;95352.00;;;8.90
10869;BMP180;62667;48.698;8.762;2023-03-31T00:52:55;95342.00;;;9.00
10869;BMP180;62667;48.698;8.762;2023-03-31T00:55:29;95319.00;;;9.10
10869;BMP180;62667;48.698;8.762;2023-03-31T00:57:57;95316.00;;;9.20
10869;BMP180;62667;48.698;8.762;2023-03-31T01:00:27;95303.00;;;9.20
10869;BMP180;62667;48.698;8.762;2023-03-31T01:02:58;95291.00;;;9.30
10869;BMP180;62667;48.698;8.762;2023-03-31T01:05:31;95279.00;;;9.30
10869;BMP180;62667;48.698;8.762;2023-03-31T01:08:00;95283.00;;;9.30
10869;BMP180;62667;48.698;8.762;2023-03-31T01:10:29;95294.00;;;9.60
10869;BMP180;62667;48.698;8.762;2023-03-31T01:13:04;95311.00;;;9.60
10869;BMP180;62667;48.698;8.762;2023-03-31T01:15:31;95307.00;;;9.60
10869;BMP180;62667;48.698;8.762;2023-03-31T01:18:00;95302.00;;;9.40
10869;BMP180;62667;48.698;8.762;2023-03-31T01:20:34;95229.00;;;9.30
10869;BMP180;62667;48.698;8.762;2023-03-31T01:23:28;95307.00;;;9.20
10869;BMP180;62667;48.698;8.762;2023-03-31T01:29:03;95306.00;;;9.20
10869;BMP180;62667;48.698;8.762;2023-03-31T01:31:47;95299.00;;;8.80
10869;BMP180;62667;48.698;8.762;2023-03-31T01:35:08;95290.00;;;8.90
10869;BMP180;62667;48.698;8.762;2023-03-31T01:41:02;95315.00;;;9.30
10869;BMP180;62667;48.698;8.762;2023-03-31T01:43:35;95308.00;;;9.30
10869;BMP180;62667;48.698;8.762;2023-03-31T01:46:10;95303.00;;;9.10
10869;BMP180;62667;48.698;8.762;2023-03-31T01:48:47;95297.00;;;9.00
10869;BMP180;62667;48.698;8.762;2023-03-31T01:51:21;95279.00;;;8.90
10869;BMP180;62667;48.698;8.762;2023-03-31T01:53:59;95284.00;;;8.90
10869;BMP180;62667;48.698;8.762;2023-03-31T01:56:32;95276.00;;;8.90
10869;BMP180;62667;48.698;8.762;2023-03-31T01:59:03;95275.00;;;8.90
10869;BMP180;62667;48.698;8.762;2023-03-31T02:01:36;95265.00;;;8.90
10869;BMP180;62667;48.698;8.762;2023-03-31T02:04:10;95266.00;;;9.00
10869;BMP180;62667;48.698;8.762;2023-03-31T02:06:41;95263.00;;;9.10
10869;BMP180;62667;48.698;8.762;2023-03-31T02:09:14;95240.00;;;9.10
10869;BMP180;62667;48.698;8.762;2023-03-31T02:11:45;95237.00;;;9.10
10869;BMP180;62667;48.698;8.762;2023-03-31T02:14:17;95229.00;;;9.10
10869;BMP180;62667;48.698;8.762;2023-03-31T02:16:48;95223.00;;;9.30
10869;BMP180;62667;48.698;8.762;2023-03-31T02:19:18;95223.00;;;9.30
10869;BMP180;62667;48.698;8.762;2023-03-31T02:21:48;95197.00;;;9.10
10869;BMP180;62667;48.698;8.762;2023-03-31T02:24:18;95175.00;;;9.10
10869;BMP180;62667;48.698;8.762;2023-03-31T02:26:52;95145.00;;;9.20
10869;BMP180;62667;48.698;8.762;2023-03-31T02:29:21;95137.00;;;9.10
10869;BMP180;62667;48.698;8.762;2023-03-31T02:31:54;95131.00;;;9.10
10869;BMP180;62667;48.698;8.762;2023-03-31T02:34:23;95128.00;;;9.10
10869;BMP180;62667;48.698;8.762;2023-03-31T02:36:51;95118.00;;;9.00
10869;BMP180;62667;48.698;8.762;2023-03-31T02:39:22;95106.00;;;8.90
10869;BMP180;62667;48.698;8.762;2023-03-31T02:41:53;95101.00;;;8.80
10869;BMP180;62667;48.698;8.762;2023-03-31T02:44:20;95101.00;;;8.80
10869;BMP180;62667;48.698;8.762;2023-03-31T02:46:49;95107.00;;;8.80
10869;BMP180;62667;48.698;8.762;2023-03-31T02:49:17;95100.00;;;8.70
10869;BMP180;62667;48.698;8.762;2023-03-31T02:52:04;95103.00;;;8.60
10869;BMP180;62667;48.698;8.762;2023-03-31T02:54:51;95089.00;;;8.60
10869;BMP180;62667;48.698;8.762;2023-03-31T02:57:35;95089.00;;;8.50
10869;BMP180;62667;48.698;8.762;2023-03-31T03:00:10;95082.00;;;8.50
10869;BMP180;62667;48.698;8.762;2023-03-31T03:02:51;95061.00;;;8.30
10869;BMP180;62667;48.698;8.762;2023-03-31T03:05:30;95059.00;;;8.30
10869;BMP180;62667;48.698;8.762;2023-03-31T03:08:08;95040.00;;;8.30
10869;BMP180;62667;48.698;8.762;2023-03-31T03:10:47;95029.00;;;8.30
10869;BMP180;62667;48.698;8.762;2023-03-31T03:13:25;95021.00;;;8.30
10869;BMP180;62667;48.698;8.762;2023-03-31T03:16:00;95008.00;;;8.30
10869;BMP180;62667;48.698;8.762;2023-03-31T03:18:27;95003.00;;;8.30
10869;BMP180;62667;48.698;8.762;2023-03-31T03:20:55;94989.00;;;8.30
10869;BMP180;62667;48.698;8.762;2023-03-31T03:23:22;95000.00;;;8.40
10869;BMP180;62667;48.698;8.762;2023-03-31T03:25:50;94992.00;;;8.40
10869;BMP180;62667;48.698;8.762;2023-03-31T03:28:17;94984.00;;;8.30
10869;BMP180;62667;48.698;8.762;2023-03-31T03:30:46;94989.00;;;8.30
10869;BMP180;62667;48.698;8.762;2023-03-31T03:33:13;94987.00;;;8.40
10869;BMP180;62667;48.698;8.762;2023-03-31T03:35:42;94987.00;;;8.30
10869;BMP180;62667;48.698;8.762;2023-03-31T03:38:09;94978.00;;;8.30
10869;BMP180;62667;48.698;8.762;2023-03-31T03:40:37;94959.00;;;8.20
10869;BMP180;62667;48.698;8.762;2023-03-31T03:43:04;94945.00;;;8.20
10869;BMP180;62667;48.698;8.762;2023-03-31T03:45:31;94938.00;;;8.20
10869;BMP180;62667;48.698;8.762;2023-03-31T03:48:00;94938.00;;;8.20
10869;BMP180;62667;48.698;8.762;2023-03-31T03:50:28;94924.00;;;8.10
10869;BMP180;62667;48.698;8.762;2023-03-31T03:52:55;94916.00;;;8.20
10869;BMP180;62667;48.698;8.762;2023-03-31T03:55:23;94910.00;;;8.20
10869;BMP180;62667;48.698;8.762;2023-03-31T03:57:51;94910.00;;;8.20
10869;BMP180;62667;48.698;8.762;2023-03-31T04:00:18;94893.00;;;8.30
10869;BMP180;62667;48.698;8.762;2023-03-31T04:02:46;94886.00;;;8.30
10869;BMP180;62667;48.698;8.762;2023-03-31T04:05:15;94893.00;;;8.50
10869;BMP180;62667;48.698;8.762;2023-03-31T04:07:42;94900.00;;;8.60
10869;BMP180;62667;48.698;8.762;2023-03-31T04:10:10;94913.00;;;8.60
10869;BMP180;62667;48.698;8.762;2023-03-31T04:12:37;94887.00;;;8.70
10869;BMP180;62667;48.698;8.762;2023-03-31T04:15:06;94898.00;;;8.80
10869;BMP180;62667;48.698;8.762;2023-03-31T04:17:33;94895.00;;;8.70
10869;BMP180;62667;48.698;8.762;2023-03-31T04:20:03;94903.00;;;8.70
10869;BMP180;62667;48.698;8.762;2023-03-31T04:22:33;94902.00;;;8.80
10869;BMP180;62667;48.698;8.762;2023-03-31T04:25:07;94905.00;;;8.80
10869;BMP180;62667;48.698;8.762;2023-03-31T04:27:39;94909.00;;;8.80
10869;BMP180;62667;48.698;8.762;2023-03-31T04:30:12;94904.00;;;8.70
10869;BMP180;62667;48.698;8.762;2023-03-31T04:32:48;94905.00;;;8.70
10869;BMP180;62667;48.698;8.762;2023-03-31T04:35:17;94903.00;;;8.80
10869;BMP180;62667;48.698;8.762;2023-03-31T04:37:47;94887.00;;;8.70
10869;BMP180;62667;48.698;8.762;2023-03-31T04:40:15;94890.00;;;8.90
10869;BMP180;62667;48.698;8.762;2023-03-31T04:42:43;94890.00;;;8.90
10869;BMP180;62667;48.698;8.762;2023-03-31T04:45:13;94883.00;;;8.90
10869;BMP180;62667;48.698;8.762;2023-03-31T04:47:40;94881.00;;;8.80
10869;BMP180;62667;48.698;8.762;2023-03-31T04:50:09;94864.00;;;8.80
10869;BMP180;62667;48.698;8.762;2023-03-31T04:52:36;94857.00;;;8.70
10869;BMP180;62667;48.698;8.762;2023-03-31T04:55:07;94864.00;;;8.70
10869;BMP180;62667;48.698;8.762;2023-03-31T04:57:35;94866.00;;;8.80
10869;BMP180;62667;48.698;8.762;2023-03-31T05:00:03;94859.00;;;8.70
10869;BMP180;62667;48.698;8.762;2023-03-31T05:02:33;94880.00;;;8.80
10869;BMP180;62667;48.698;8.762;2023-03-31T05:05:00;94896.00;;;8.60
10869;BMP180;62667;48.698;8.762;2023-03-31T05:07:28;94912.00;;;8.40
10869;BMP180;62667;48.698;8.762;2023-03-31T05:09:56;94897.00;;;8.30
10869;BMP180;62667;48.698;8.762;2023-03-31T05:12:25;94889.00;;;8.30
10869;BMP180;62667;48.698;8.762;2023-03-31T05:14:53;94881.00;;;8.30
10869;BMP180;62667;48.698;8.762;2023-03-31T05:17:20;94879.00;;;8.30
10869;BMP180;62667;48.698;8.762;2023-03-31T05:19:48;94869.00;;;8.10
10869;BMP180;62667;48.698;8.762;2023-03-31T05:22:16;94873.00;;;8.10
10869;BMP180;62667;48.698;8.762;2023-03-31T05:24:45;94862.00;;;8.10
10869;BMP180;62667;48.698;8.762;2023-03-31T05:27:13;94868.00;;;8.10
10869;BMP180;62667;48.698;8.762;2023-03-31T05:29:43;94865.00;;;8.10
10869;BMP180;62667;48.698;8.762;2023-03-31T05:32:10;94858.00;;;8.20
10869;BMP180;62667;48.698;8.762;2023-03-31T05:34:38;94851.00;;;8.20
10869;BMP180;62667;48.698;8.762;2023-03-31T05:37:05;94838.00;;;8.30
10869;BMP180;62667;48.698;8.762;2023-03-31T05:39:33;94834.00;;;8.40
10869;BMP180;62667;48.698;8.762;2023-03-31T05:42:00;94822.00;;;8.30
10869;BMP180;62667;48.698;8.762;2023-03-31T05:44:28;94822.00;;;8.50
10869;BMP180;62667;48.698;8.762;2023-03-31T05:46:57;94829.00;;;8.50
10869;BMP180;62667;48.698;8.762;2023-03-31T05:49:24;94819.00;;;8.60
10869;BMP180;62667;48.698;8.762;2023-03-31T05:51:52;94813.00;;;8.70
10869;BMP180;62667;48.698;8.762;2023-03-31T05:54:19;94801.00;;;8.60
10869;BMP180;62667;48.698;8.762;2023-03-31T05:56:48;94803.00;;;8.60
10869;BMP180;62667;48.698;8.762;2023-03-31T05:59:15;94785.00;;;8.50
10869;BMP180;62667;48.698;8.762;2023-03-31T06:01:43;94765.00;;;8.40
10869;BMP180;62667;48.698;8.762;2023-03-31T06:04:11;94764.00;;;8.30
10869;BMP180;62667;48.698;8.762;2023-03-31T06:06:39;94746.00;;;8.40
10869;BMP180;62667;48.698;8.762;2023-03-31T06:09:08;94750.00;;;8.50
10869;BMP180;62667;48.698;8.762;2023-03-31T06:11:37;94748.00;;;8.60
10869;BMP180;62667;48.698;8.762;2023-03-31T06:14:05;94746.00;;;8.60
10869;BMP180;62667;48.698;8.762;2023-03-31T06:16:32;94745.00;;;8.80
10869;BMP180;62667;48.698;8.762;2023-03-31T06:19:00;94747.00;;;8.80
10869;BMP180;62667;48.698;8.762;2023-03-31T06:21:28;94755.00;;;8.80
10869;BMP180;62667;48.698;8.762;2023-03-31T06:23:56;94773.00;;;8.70
10869;BMP180;62667;48.698;8.762;2023-03-31T06:26:25;94766.00;;;8.70
10869;BMP180;62667;48.698;8.762;2023-03-31T06:28:53;94760.00;;;8.80
10869;BMP180;62667;48.698;8.762;2023-03-31T06:31:22;94765.00;;;8.70
10869;BMP180;62667;48.698;8.762;2023-03-31T06:33:51;94756.00;;;8.70
10869;BMP180;62667;48.698;8.762;2023-03-31T06:36:19;94763.00;;;8.50
10869;BMP180;62667;48.698;8.762;2023-03-31T06:38:49;94767.00;;;8.60
10869;BMP180;62667;48.698;8.762;2023-03-31T06:41:17;94783.00;;;8.50
10869;BMP180;62667;48.698;8.762;2023-03-31T06:43:47;94821.00;;;8.50
10869;BMP180;62667;48.698;8.762;2023-03-31T06:46:15;94838.00;;;8.50
10869;BMP180;62667;48.698;8.762;2023-03-31T06:48:42;94844.00;;;8.20
10869;BMP180;62667;48.698;8.762;2023-03-31T06:51:11;94864.00;;;8.20
10869;BMP180;62667;48.698;8.762;2023-03-31T06:53:38;94848.00;;;8.00
10869;BMP180;62667;48.698;8.762;2023-03-31T06:56:07;94826.00;;;8.30
10869;BMP180;62667;48.698;8.762;2023-03-31T06:58:35;94844.00;;;8.20
10869;BMP180;62667;48.698;8.762;2023-03-31T07:01:03;94771.00;;;8.10
10869;BMP180;62667;48.698;8.762;2023-03-31T07:03:31;94796.00;;;8.30
10869;BMP180;62667;48.698;8.762;2023-03-31T07:05:59;94789.00;;;8.60
10869;BMP180;62667;48.698;8.762;2023-03-31T07:08:27;94785.00;;;8.50
10869;BMP180;62667;48.698;8.762;2023-03-31T07:10:56;94770.00;;;8.40
10869;BMP180;62667;48.698;8.762;2023-03-31T07:13:26;94772.00;;;8.50
10869;BMP180;62667;48.698;8.762;2023-03-31T07:15:54;94780.00;;;8.50
10869;BMP180;62667;48.698;8.762;2023-03-31T07:18:22;94763.00;;;8.50
10869;BMP180;62667;48.698;8.762;2023-03-31T07:20:57;94757.00;;;8.60
10869;BMP180;62667;48.698;8.762;2023-03-31T07:23:25;94752.00;;;8.80
10869;BMP180;62667;48.698;8.762;2023-03-31T07:25:53;94748.00;;;8.90
10869;BMP180;62667;48.698;8.762;2023-03-31T07:28:20;94735.00;;;9.00
10869;BMP180;62667;48.698;8.762;2023-03-31T07:30:49;94736.00;;;9.00
10869;BMP180;62667;48.698;8.762;2023-03-31T07:33:16;94740.00;;;8.90
10869;BMP180;62667;48.698;8.762;2023-03-31T07:35:44;94749.00;;;8.80
10869;BMP180;62667;48.698;8.762;2023-03-31T07:38:12;94744.00;;;9.10
10869;BMP180;62667;48.698;8.762;2023-03-31T07:40:40;94732.00;;;9.10
10869;BMP180;62667;48.698;8.762;2023-03-31T07:43:09;94723.00;;;9.20
10869;BMP180;62667;48.698;8.762;2023-03-31T07:45:38;94730.00;;;9.20
10869;BMP180;62667;48.698;8.762;2023-03-31T07:48:07;94712.00;;;9.40
10869;BMP180;62667;48.698;8.762;2023-03-31T07:50:35;94726.00;;;9.60
10869;BMP180;62667;48.698;8.762;2023-03-31T07:53:04;94734.00;;;9.50
10869;BMP180;62667;48.698;8.762;2023-03-31T07:55:32;94713.00;;;9.70
10869;BMP180;62667;48.698;8.762;2023-03-31T07:57:59;94736.00;;;9.80
10869;BMP180;62667;48.698;8.762;2023-03-31T08:00:27;94728.00;;;9.80
10869;BMP180;62667;48.698;8.762;2023-03-31T08:02:54;94727.00;;;10.00
10869;BMP180;62667;48.698;8.762;2023-03-31T08:05:23;94734.00;;;10.00
10869;BMP180;62667;48.698;8.762;2023-03-31T08:07:51;94733.00;;;10.20
10869;BMP180;62667;48.698;8.762;2023-03-31T08:10:21;94735.00;;;10.40
10869;BMP180;62667;48.698;8.762;2023-03-31T08:12:49;94734.00;;;10.60
10869;BMP180;62667;48.698;8.762;2023-03-31T08:15:16;94725.00;;;10.40
10869;BMP180;62667;48.698;8.762;2023-03-31T08:17:44;94720.00;;;10.60
10869;BMP180;62667;48.698;8.762;2023-03-31T08:20:12;94720.00;;;10.90
10869;BMP180;62667;48.698;8.762;2023-03-31T08:22:41;94703.00;;;11.10
10869;BMP180;62667;48.698;8.762;2023-03-31T08:25:09;94769.00;;;10.90
10869;BMP180;62667;48.698;8.762;2023-03-31T08:27:37;94723.00;;;10.90
10869;BMP180;62667;48.698;8.762;2023-03-31T08:30:07;94733.00;;;10.90
10869;BMP180;62667;48.698;8.762;2023-03-31T08:32:35;94728.00;;;11.00
10869;BMP180;62667;48.698;8.762;2023-03-31T08:35:04;94757.00;;;10.90
10869;BMP180;62667;48.698;8.762;2023-03-31T08:37:31;94723.00;;;10.80
10869;BMP180;62667;48.698;8.762;2023-03-31T08:40:00;94732.00;;;11.00
10869;BMP180;62667;48.698;8.762;2023-03-31T08:42:35;94747.00;;;11.00
10869;BMP180;62667;48.698;8.762;2023-03-31T08:45:08;94725.00;;;11.10
10869;BMP180;62667;48.698;8.762;2023-03-31T08:47:38;94732.00;;;11.40
10869;BMP180;62667;48.698;8.762;2023-03-31T08:50:10;94746.00;;;11.70
10869;BMP180;62667;48.698;8.762;2023-03-31T08:52:42;94722.00;;;11.80
10869;BMP180;62667;48.698;8.762;2023-03-31T08:55:16;94765.00;;;11.30
10869;BMP180;62667;48.698;8.762;2023-03-31T08:57:51;94718.00;;;11.40
10869;BMP180;62667;48.698;8.762;2023-03-31T09:00:21;94743.00;;;11.50
10869;BMP180;62667;48.698;8.762;2023-03-31T09:02:55;94725.00;;;11.70
10869;BMP180;62667;48.698;8.762;2023-03-31T09:05:45;94729.00;;;11.60
10869;BMP180;62667;48.698;8.762;2023-03-31T09:08:31;94751.00;;;11.30
10869;BMP180;62667;48.698;8.762;2023-03-31T09:11:08;94760.00;;;11.10
10869;BMP180;62667;48.698;8.762;2023-03-31T09:14:05;94748.00;;;11.00
10869;BMP180;62667;48.698;8.762;2023-03-31T09:16:39;94708.00;;;11.30
10869;BMP180;62667;48.698;8.762;2023-03-31T09:19:14;94722.00;;;11.30
10869;BMP180;62667;48.698;8.762;2023-03-31T09:21:46;94713.00;;;11.20
10869;BMP180;62667;48.698;8.762;2023-03-31T09:24:18;94723.00;;;11.00
10869;BMP180;62667;48.698;8.762;2023-03-31T09:26:50;94723.00;;;11.00
10869;BMP180;62667;48.698;8.762;2023-03-31T09:29:23;94726.00;;;11.40
10869;BMP180;62667;48.698;8.762;2023-03-31T09:31:55;94709.00;;;11.70
10869;BMP180;62667;48.698;8.762;2023-03-31T09:34:30;94683.00;;;11.40
10869;BMP180;62667;48.698;8.762;2023-03-31T09:36:58;94676.00;;;11.80
10869;BMP180;62667;48.698;8.762;2023-03-31T09:39:26;94665.00;;;11.90
10869;BMP180;62667;48.698;8.762;2023-03-31T09:41:55;94667.00;;;12.20
10869;BMP180;62667;48.698;8.762;2023-03-31T09:44:25;94665.00;;;12.10
10869;BMP180;62667;48.698;8.762;2023-03-31T09:46:54;94680.00;;;12.00
10869;BMP180;62667;48.698;8.762;2023-03-31T09:49:24;94644.00;;;12.20
10869;BMP180;62667;48.698;8.762;2023-03-31T09:52:01;94632.00;;;12.30
10869;BMP180;62667;48.698;8.762;2023-03-31T09:54:35;94659.00;;;12.10
10869;BMP180;62667;48.698;8.762;2023-03-31T09:57:13;94626.00;;;12.20
10869;BMP180;62667;48.698;8.762;2023-03-31T09:59:40;94630.00;;;12.20
10869;BMP180;62667;48.698;8.762;2023-03-31T10:02:28;94630.00;;;12.20
10869;BMP180;62667;48.698;8.762;2023-03-31T10:05:01;94606.00;;;12.20
10869;BMP180;62667;48.698;8.762;2023-03-31T10:07:29;94612.00;;;12.10
10869;BMP180;62667;48.698;8.762;2023-03-31T10:09:57;94592.00;;;12.30
10869;BMP180;62667;48.698;8.762;2023-03-31T10:12:28;94615.00;;;12.60
10869;BMP180;62667;48.698;8.762;2023-03-31T10:15:14;94639.00;;;12.60
10869;BMP180;62667;48.698;8.762;2023-03-31T10:17:45;94626.00;;;12.70
10869;BMP180;62667;48.698;8.762;2023-03-31T10:20:29;94604.00;;;12.10
10869;BMP180;62667;48.698;8.762;2023-03-31T10:23:02;94601.00;;;12.20
10869;BMP180;62667;48.698;8.762;2023-03-31T10:25:32;94602.00;;;12.30
10869;BMP180;62667;48.698;8.762;2023-03-31T10:28:02;94597.00;;;12.70
10869;BMP180;62667;48.698;8.762;2023-03-31T10:30:33;94615.00;;;12.60
10869;BMP180;62667;48.698;8.762;2023-03-31T10:33:05;94586.00;;;13.00
10869;BMP180;62667;48.698;8.762;2023-03-31T10:35:37;94572.00;;;12.70
10869;BMP180;62667;48.698;8.762;2023-03-31T10:38:09;94597.00;;;12.80
10869;BMP180;62667;48.698;8.762;2023-03-31T10:40:39;94577.00;;;12.70
10869;BMP180;62667;48.698;8.762;2023-03-31T10:43:15;94615.00;;;12.80
10869;BMP180;62667;48.698;8.762;2023-03-31T10:45:47;94594.00;;;12.80
10869;BMP180;62667;48.698;8.762;2023-03-31T10:48:22;94644.00;;;12.50
10869;BMP180;62667;48.698;8.762;2023-03-31T10:50:50;94693.00;;;12.00
10869;BMP180;62667;48.698;8.762;2023-03-31T10:53:18;94598.00;;;11.80
10869;BMP180;62667;48.698;8.762;2023-03-31T10:56:05;94638.00;;;11.40
10869;BMP180;62667;48.698;8.762;2023-03-31T10:58:54;94638.00;;;11.30
10869;BMP180;62667;48.698;8.762;2023-03-31T11:01:33;94721.00;;;10.90
10869;BMP180;62667;48.698;8.762;2023-03-31T11:04:24;94869.00;;;8.10
10869;BMP180;62667;48.698;8.762;2023-03-31T11:06:59;94810.00;;;7.00
10869;BMP180;62667;48.698;8.762;2023-03-31T11:09:40;94798.00;;;7.00
10869;BMP180;62667;48.698;8.762;2023-03-31T11:12:16;94829.00;;;7.10
10869;BMP180;62667;48.698;8.762;2023-03-31T11:14:58;94915.00;;;7.20
10869;BMP180;62667;48.698;8.762;2023-03-31T11:17:39;94752.00;;;7.20
10869;BMP180;62667;48.698;8.762;2023-03-31T11:20:17;94758.00;;;7.10
10869;BMP180;62667;48.698;8.762;2023-03-31T11:22:52;94790.00;;;7.10
10869;BMP180;62667;48.698;8.762;2023-03-31T11:25:28;94738.00;;;7.10
10869;BMP180;62667;48.698;8.762;2023-03-31T11:31:20;94727.00;;;7.10
10869;BMP180;62667;48.698;8.762;2023-03-31T11:34:04;94723.00;;;7.30
10869;BMP180;62667;48.698;8.762;2023-03-31T11:36:42;94706.00;;;7.40
10869;BMP180;62667;48.698;8.762;2023-03-31T11:39:30;94680.00;;;7.90
10869;BMP180;62667;48.698;8.762;2023-03-31T11:42:01;94671.00;;;8.40
10869;BMP180;62667;48.698;8.762;2023-03-31T11:44:37;94665.00;;;8.60
10869;BMP180;62667;48.698;8.762;2023-03-31T11:47:09;94651.00;;;9.00
10869;BMP180;62667;48.698;8.762;2023-03-31T11:49:41;94628.00;;;9.30
10869;BMP180;62667;48.698;8.762;2023-03-31T11:52:15;94665.00;;;9.30
10869;BMP180;62667;48.698;8.762;2023-03-31T11:54:51;94645.00;;;9.30
10869;BMP180;62667;48.698;8.762;2023-03-31T11:57:25;94631.00;;;9.00
10869;BMP180;62667;48.698;8.762;2023-03-31T11:59:57;94631.00;;;9.50
10869;BMP180;62667;48.698;8.762;2023-03-31T12:02:35;94614.00;;;9.40
10869;BMP180;62667;48.698;8.762;2023-03-31T12:05:06;94615.00;;;9.20
10869;BMP180;62667;48.698;8.762;2023-03-31T12:07:40;94599.00;;;10.00
10869;BMP180;62667;48.698;8.762;2023-03-31T12:10:17;94589.00;;;9.90
10869;BMP180;62667;48.698;8.762;2023-03-31T12:12:48;94609.00;;;9.80
10869;BMP180;62667;48.698;8.762;2023-03-31T12:15:21;94595.00;;;10.30
10869;BMP180;62667;48.698;8.762;2023-03-31T12:17:57;94572.00;;;10.40
10869;BMP180;62667;48.698;8.762;2023-03-31T12:20:31;94620.00;;;10.30
10869;BMP180;62667;48.698;8.762;2023-03-31T12:23:01;94552.00;;;10.60
10869;BMP180;62667;48.698;8.762;2023-03-31T12:25:40;94564.00;;;10.50
10869;BMP180;62667;48.698;8.762;2023-03-31T12:28:11;94585.00;;;10.30
10869;BMP180;62667;48.698;8.762;2023-03-31T12:30:40;94551.00;;;10.10
10869;BMP180;62667;48.698;8.762;2023-03-31T12:33:17;94542.00;;;10.50
10869;BMP180;62667;48.698;8.762;2023-03-31T12:35:56;94534.00;;;10.60
10869;BMP180;62667;48.698;8.762;2023-03-31T12:38:40;94516.00;;;11.20
10869;BMP180;62667;48.698;8.762;2023-03-31T12:41:15;94526.00;;;11.50
10869;BMP180;62667;48.698;8.762;2023-03-31T12:43:58;94515.00;;;11.30
10869;BMP180;62667;48.698;8.762;2023-03-31T12:46:58;94555.00;;;11.50
10869;BMP180;62667;48.698;8.762;2023-03-31T12:49:46;94532.00;;;11.10
10869;BMP180;62667;48.698;8.762;2023-03-31T12:52:20;94563.00;;;10.80
10869;BMP180;62667;48.698;8.762;2023-03-31T13:01:04;94637.00;;;9.80
10869;BMP180;62667;48.698;8.762;2023-03-31T13:03:41;94658.00;;;9.20
10869;BMP180;62667;48.698;8.762;2023-03-31T13:06:50;94673.00;;;8.60
10869;BMP180;62667;48.698;8.762;2023-03-31T13:09:47;94674.00;;;7.90
10869;BMP180;62667;48.698;8.762;2023-03-31T13:12:20;94689.00;;;7.70
10869;BMP180;62667;48.698;8.762;2023-03-31T13:14:50;94652.00;;;7.60
10869;BMP180;62667;48.698;8.762;2023-03-31T13:17:37;94638.00;;;7.70
10869;BMP180;62667;48.698;8.762;2023-03-31T13:20:27;94666.00;;;7.70
10869;BMP180;62667;48.698;8.762;2023-03-31T13:23:06;94698.00;;;7.60
10869;BMP180;62667;48.698;8.762;2023-03-31T13:25:44;94700.00;;;7.30
10869;BMP180;62667;48.698;8.762;2023-03-31T13:28:37;94727.00;;;7.10
10869;BMP180;62667;48.698;8.762;2023-03-31T13:31:05;94673.00;;;7.10
10869;BMP180;62667;48.698;8.762;2023-03-31T13:33:50;94696.00;;;7.10
10869;BMP180;62667;48.698;8.762;2023-03-31T13:36:37;94664.00;;;7.10
10869;BMP180;62667;48.698;8.762;2023-03-31T13:42:21;94597.00;;;7.20
10869;BMP180;62667;48.698;8.762;2023-03-31T13:45:07;94575.00;;;7.40
10869;BMP180;62667;48.698;8.762;2023-03-31T13:50:36;94520.00;;;8.50
10869;BMP180;62667;48.698;8.762;2023-03-31T13:53:18;94511.00;;;8.60
10869;BMP180;62667;48.698;8.762;2023-03-31T13:59:10;94486.00;;;10.10
10869;BMP180;62667;48.698;8.762;2023-03-31T14:02:02;94497.00;;;10.80
10869;BMP180;62667;48.698;8.762;2023-03-31T14:04:58;94504.00;;;10.60
10869;BMP180;62667;48.698;8.762;2023-03-31T14:07:32;94496.00;;;10.60
10869;BMP180;62667;48.698;8.762;2023-03-31T14:10:00;94497.00;;;11.00
10869;BMP180;62667;48.698;8.762;2023-03-31T14:12:34;94521.00;;;11.10
10869;BMP180;62667;48.698;8.762;2023-03-31T14:15:04;94518.00;;;10.60
10869;BMP180;62667;48.698;8.762;2023-03-31T14:17:34;94508.00;;;10.70
10869;BMP180;62667;48.698;8.762;2023-03-31T14:20:18;94505.00;;;10.80
10869;BMP180;62667;48.698;8.762;2023-03-31T14:22:50;94489.00;;;12.20
10869;BMP180;62667;48.698;8.762;2023-03-31T14:25:31;94477.00;;;12.30
10869;BMP180;62667;48.698;8.762;2023-03-31T14:28:13;94453.00;;;11.80
10869;BMP180;62667;48.698;8.762;2023-03-31T14:30:52;94458.00;;;13.10
10869;BMP180;62667;48.698;8.762;2023-03-31T14:33:34;94466.00;;;14.00
10869;BMP180;62667;48.698;8.762;2023-03-31T14:36:11;94482.00;;;13.70
10869;BMP180;62667;48.698;8.762;2023-03-31T14:38:41;94494.00;;;13.80
10869;BMP180;62667;48.698;8.762;2023-03-31T14:41:16;94478.00;;;15.90
10869;BMP180;62667;48.698;8.762;2023-03-31T14:43:49;94491.00;;;15.80
10869;BMP180;62667;48.698;8.762;2023-03-31T14:46:20;94482.00;;;16.00
10869;BMP180;62667;48.698;8.762;2023-03-31T14:48:49;94519.00;;;15.20
10869;BMP180;62667;48.698;8.762;2023-03-31T14:51:22;94505.00;;;13.30
10869;BMP180;62667;48.698;8.762;2023-03-31T14:53:55;94509.00;;;15.40
10869;BMP180;62667;48.698;8.762;2023-03-31T14:56:28;94489.00;;;14.80
10869;BMP180;62667;48.698;8.762;2023-03-31T14:59:00;94496.00;;;15.80
10869;BMP180;62667;48.698;8.762;2023-03-31T15:01:30;94482.00;;;16.80
10869;BMP180;62667;48.698;8.762;2023-03-31T15:04:02;94460.00;;;16.90
10869;BMP180;62667;48.698;8.762;2023-03-31T15:06:33;94447.00;;;18.80
10869;BMP180;62667;48.698;8.762;2023-03-31T15:09:02;94462.00;;;16.70
10869;BMP180;62667;48.698;8.762;2023-03-31T15:11:30;94513.00;;;15.60
10869;BMP180;62667;48.698;8.762;2023-03-31T15:13:59;94501.00;;;14.10